KBEC/BEC METAR and TAF weather

Enter ICAO airport designator
Station Type Date Time Source
KBEC METAR 2018/04/23 11:15 UTC NOAA

KBEC 231115Z AUTO 01006KT 10SM CLR 08/05 A3010 RMK AO2 T00840052


Station Type Date Time Source
KBEC Decoded METAR 2018/04/23 11:15 UTC NOAA

Station name not available
Apr 23, 2018 - 07:15 AM EDT / 2018.04.23 1115 UTC
Wind: from the N (010 degrees) at 7 MPH (6 KT):0
Visibility: 10 mile(s):0
Sky conditions: clear
Temperature: 47.1 F (8.4 C)
Dew Point: 41.4 F (5.2 C)
Relative Humidity: 80%
Pressure (altimeter): 30.1 in. Hg (1019 hPa)
ob: KBEC 231115Z AUTO 01006KT 10SM CLR 08/05 A3010 RMK AO2 T00840052
cycle: 11

Station Type Date Time Source
KBEC TAF UTC NOAA

Error!


Example: see airport list